METAR Data
IDs: Format: Raw Decoded Include TAF

Data at: 2121 UTC 20 Nov 2018

KBYY 202115Z AUTO 03006KT 10SM CLR 17/07 A3024 RMK AO2 T01750064
KBYY 202055Z AUTO 01004KT 10SM CLR 17/06 A3024 RMK AO2 T01710064
KBYY 202035Z AUTO 36010KT 10SM CLR 17/06 A3024 RMK AO2 T01740068
KBYY 202015Z AUTO 04005KT 10SM CLR 17/06 A3025 RMK AO2 T01710064
KBYY 201955Z AUTO 02008KT 10SM CLR 17/06 A3025 RMK AO2 T01710065
KBYY 201935Z AUTO 01011G15KT 10SM CLR 17/06 A3025 RMK AO2 T01690066
KBYY 201915Z AUTO 02008G14KT 10SM CLR 16/06 A3026 RMK AO2 T01660068
KBYY 201855Z AUTO 02011G14KT 10SM CLR 16/07 A3027 RMK AO2 T01640069
KBYY 201835Z AUTO 36010G15KT 10SM CLR 16/07 A3028 RMK AO2 T01590070
KBYY 201815Z AUTO 03008G14KT 10SM CLR 15/07 A3029 RMK AO2 T01570072
KBYY 201755Z AUTO 03011G14KT 10SM CLR 15/07 A3029 RMK AO2 T01530073
KBYY 201735Z AUTO 03011G15KT 10SM CLR 15/07 A3029 RMK AO2 T01490068
KBYY 201715Z AUTO 01009G13KT 10SM CLR 14/07 A3031 RMK AO2 T01430069
KBYY 201655Z AUTO 04012KT 10SM CLR 13/07 A3031 RMK AO2 T01370067
KBYY 201635Z AUTO 04014G18KT 10SM CLR 13/06 A3031 RMK AO2 T01330069
KBYY 201615Z AUTO 02011KT 10SM CLR 13/07 A3031 RMK AO2 T01270070
KBYY 201555Z AUTO 04012KT 10SM CLR 12/06 A3031 RMK AO2 T01180066
KBYY 201535Z AUTO 03014G17KT 10SM CLR 11/06 A3031 RMK AO2 T01130063
KBYY 201515Z AUTO 03012KT 10SM CLR 11/06 A3030 RMK AO2 T01070063
KBYY 201455Z AUTO 03010G17KT 10SM CLR 10/06 A3030 RMK AO2 T01030063
KBYY 201435Z AUTO 02007KT 10SM CLR 10/06 A3030 RMK AO2 T00980064
KBYY 201415Z AUTO 01007KT 10SM CLR 09/06 A3029 RMK AO2 T00920065
KBYY 201355Z AUTO 36007KT 10SM CLR 08/06 A3029 RMK AO2 T00870065
KBYY 201335Z AUTO 36007KT 10SM CLR 08/06 A3028 RMK AO2 T00840065
KBYY 201315Z AUTO 36005KT 10SM CLR 08/06 A3027 RMK AO2 T00830063
KBYY 201255Z AUTO 36006KT 10SM CLR 08/06 A3026 RMK AO2 T00850063
KBYY 201235Z AUTO 36005KT 10SM CLR 08/06 A3025 RMK AO2 T00900064
KBYY 201215Z AUTO 01007KT 10SM SCT060 09/06 A3024 RMK AO2 T00960065
KBYY 201155Z AUTO 02005KT 10SM OVC060 10/06 A3023 RMK AO2 T01000067
KBYY 201135Z AUTO 01007KT 10SM OVC060 10/06 A3022 RMK AO2 T01000069
KBYY 201115Z AUTO 02010KT 10SM OVC050 10/07 A3020 RMK AO2 T01010070
KBYY 201055Z AUTO 01011G15KT 10SM OVC050 10/07 A3021 RMK AO2 T01020071
KBYY 201035Z AUTO 02007KT 10SM SCT050 OVC055 10/07 A3021 RMK AO2 T01030072
KBYY 201015Z AUTO 02010KT 10SM BKN048 OVC055 10/07 A3021 RMK AO2 T01040072
KBYY 200955Z AUTO 02007KT 10SM SCT048 BKN060 OVC065 10/07 A3021 RMK AO2 T01030073
KBYY 200935Z AUTO 02007G15KT 10SM OVC060 10/07 A3021 RMK AO2 T01050072
KBYY 200915Z AUTO 01010G16KT 10SM SCT050 OVC055 10/07 A3020 RMK AO2 T01050072
KBYY 200855Z AUTO 01013G21KT 10SM OVC048 10/07 A3019 RMK AO2 T01050075
KBYY 200835Z AUTO 01013G18KT 10SM OVC048 10/07 A3019 RMK AO2 T01070076
KBYY 200815Z AUTO 01012KT 10SM OVC046 10/07 A3019 RMK AO2 T01080077
KBYY 200755Z AUTO 01009G15KT 10SM OVC048 10/07 A3020 RMK AO2 T01070080
KBYY 200735Z AUTO 01010G14KT 10SM OVC050 10/07 A3019 RMK AO2 T01070080
KBYY 200715Z AUTO 01011G16KT 10SM SCT022 BKN050 OVC065 10/08 A3019 RMK AO2 T01060082
KBYY 200655Z AUTO 01008G15KT 10SM SCT022 BKN045 OVC060 10/08 A3019 RMK AO2 T01050086
KBYY 200635Z AUTO 36008KT 10SM BKN045 OVC060 10/08 A3019 RMK AO2 T01050089
KBYY 200615Z AUTO 01010KT 10SM SCT012 BKN045 OVC060 10/08 A3019 RMK AO2 T01050090
KBYY 200555Z AUTO 36011G15KT 10SM OVC012 10/08 A3019 RMK AO2 T01050091
KBYY 200535Z AUTO 35008KT 10SM OVC012 10/09 A3019 RMK AO2 T01050092
KBYY 200515Z AUTO 36007KT 10SM OVC012 10/09 A3019 RMK AO2 T01050092
KBYY 200455Z AUTO 36010KT 10SM OVC012 10/09 A3018 RMK AO2 T01060094
KBYY 200435Z AUTO 36006KT 10SM OVC012 10/09 A3019 RMK AO2 T01070095
KBYY 200415Z AUTO 35008KT 10SM OVC012 11/09 A3019 RMK AO2 T01080097
KBYY 200355Z AUTO 36006KT 10SM OVC012 11/10 A3018 RMK AO2 T01080098
KBYY 200335Z AUTO 36004KT 10SM OVC012 11/10 A3018 RMK AO2 T01080099
KBYY 200315Z AUTO 03005KT 10SM OVC012 11/10 A3016 RMK AO2 T01090101
KBYY 200255Z AUTO 36006KT 10SM OVC012 11/10 A3017 RMK AO2 T01090102
KBYY 200235Z AUTO 01005KT 10SM OVC010 10/10 A3016 RMK AO2 T01070101
KBYY 200215Z AUTO 36004KT 10SM OVC008 10/10 A3016 RMK AO2 T01080102
KBYY 200155Z AUTO 36005KT 10SM OVC008 11/10 A3015 RMK AO2 T01100104
KBYY 200135Z AUTO 36007KT 10SM OVC006 11/10 A3014 RMK AO2 T01100105
KBYY 200115Z AUTO 36010KT 10SM OVC006 11/10 A3013 RMK AO2 T01100105
KBYY 200055Z AUTO 36006KT 10SM OVC006 11/10 A3014 RMK AO2 T01090105
KBYY 200035Z AUTO 36006KT 10SM OVC004 10/10 A3014 RMK AO2 T01070105
KBYY 200015Z AUTO 36008KT 7SM OVC004 10/10 A3013 RMK AO2 T01070105
KBYY 192355Z AUTO 36007KT 7SM OVC004 10/10 A3013 RMK AO2 T01070105
KBYY 192335Z AUTO 36006KT 7SM OVC004 10/10 A3013 RMK AO2 T01080105
KBYY 192315Z AUTO 02007KT 10SM OVC004 10/10 A3012 RMK AO2 T01070105
KBYY 192255Z AUTO 36008KT 7SM OVC004 10/10 A3013 RMK AO2 T01070105
KBYY 192235Z AUTO 01010KT 7SM OVC004 10/10 A3010 RMK AO2 T01060104
KBYY 192215Z AUTO 02007KT 7SM OVC004 10/10 A3010 RMK AO2 T01050102
KBYY 192155Z AUTO 01008KT 7SM OVC004 10/10 A3010 RMK AO2 T01040101
KBYY 192135Z AUTO 01008KT 5SM BR OVC004 10/10 A3010 RMK AO2 T01030100
KBYY 192115Z AUTO 35008KT 7SM OVC004 10/10 A3011 RMK AO2 T01040100
KBYY 192055Z AUTO 01010KT 7SM OVC004 10/10 A3009 RMK AO2 T01040100
KBYY 192035Z AUTO 01009KT 10SM OVC004 10/10 A3010 RMK AO2 T01020098
KBYY 192015Z AUTO 36010G15KT 10SM OVC004 10/10 A3010 RMK AO2 T01020098
KBYY 191955Z AUTO 36009KT 10SM OVC004 10/10 A3011 RMK AO2 T01030099
KBYY 191935Z AUTO 36010G16KT 10SM OVC004 10/10 A3011 RMK AO2 T01020099
KBYY 191915Z AUTO 36010KT 7SM OVC004 10/10 A3012 RMK AO2 T01020098
KBYY 191855Z AUTO 36013KT 10SM OVC006 10/10 A3012 RMK AO2 T01030099
KBYY 191835Z AUTO 36009KT 10SM OVC006 10/10 A3014 RMK AO2 T01030100
KBYY 191815Z AUTO 01011KT 10SM OVC006 10/10 A3015 RMK AO2 T01000098
KBYY 191755Z AUTO 36008KT 10SM OVC006 10/10 A3015 RMK AO2 T00990097
KBYY 191735Z AUTO 35006KT 10SM OVC006 10/09 A3016 RMK AO2 T00970095
KBYY 191715Z AUTO 36007G14KT 10SM OVC006 10/09 A3017 RMK AO2 T00960093
KBYY 191655Z AUTO 36011KT 10SM OVC006 09/09 A3017 RMK AO2 T00940091
KBYY 191635Z AUTO 02008KT 10SM OVC004 09/08 A3016 RMK AO2 T00910090
KBYY 191615Z AUTO 01007KT 10SM OVC004 08/08 A3017 RMK AO2 T00880088
KBYY 191555Z AUTO 01007KT 10SM -DZ OVC004 08/08 A3017 RMK AO2 P0003 T00870086
KBYY 191535Z AUTO 36010KT 5SM BR OVC004 08/08 A3017 RMK AO2 P0003 T00860086
KBYY 191515Z AUTO 01008KT 2 1/2SM -RA OVC004 08/08 A3016 RMK AO2 P0003 T00860086
KBYY 191455Z AUTO 36009KT 3SM -RA OVC004 08/08 A3016 RMK AO2 P0007 T00860085
KBYY 191435Z AUTO 35010KT 5SM RA OVC004 08/08 A3016 RMK AO2 P0001 T00870086
KBYY 191415Z AUTO 36009G15KT 5SM BR OVC004 08/08 A3015 RMK AO2 T00870086
KBYY 191355Z AUTO 36010G14KT 5SM -DZ OVC004 08/08 A3015 RMK AO2 T00880087
KBYY 191335Z AUTO 36010KT 10SM OVC004 08/08 A3014 RMK AO2 T00880087
KBYY 191315Z AUTO 01011KT 10SM OVC004 08/08 A3013 RMK AO2 T00880088
KBYY 191255Z AUTO 36009G15KT 7SM OVC004 08/08 A3013 RMK AO2 P0005 T00900090
KBYY 191235Z AUTO 36007KT 4SM -RA OVC004 08/08 A3013 RMK AO2 P0005 T00910091
KBYY 191215Z AUTO 34006KT 3SM +DZ OVC004 09/09 A3013 RMK AO2 P0002 T00930093
KBYY 191155Z AUTO 01008KT 3SM RA OVC004 09/09 A3012 RMK AO2 P0005 T00930093
KBYY 191135Z AUTO 35006KT 3SM DZ OVC004 09/09 A3012 RMK AO2 P0001 T00950095
KBYY 191115Z AUTO 36009KT 3SM -DZ OVC004 09/09 A3012 RMK AO2 T00970097
KBYY 191055Z AUTO 36010KT 4SM DZ OVC004 10/10 A3011 RMK AO2 T00970097
KBYY 191035Z AUTO 01009KT 5SM BR OVC004 10/10 A3012 RMK AO2 T00980098
KBYY 191015Z AUTO 36011G15KT 5SM -DZ OVC002 10/10 A3011 RMK AO2 T01000100
KBYY 190955Z AUTO 36010KT 3SM DZ OVC002 10/10 A3012 RMK AO2 T01010101
KBYY 190935Z AUTO 35007KT 3SM BR OVC002 10/10 A3012 RMK AO2 T01030103